Terminal Aerodrome Forecast
Issued by NWS

Current Version | Previous Version | Text Only | Print | Product List | Glossary Off
Versions: 1 2 3 4 5 6 7 8 9 10 11 12 13 14 15 16 17 18

000
FTUS41 KILN 220329 AAB
TAFLCK
TAF AMD
KLCK 220329Z 2203/2224 30011G17KT P6SM VCSH OVC035
      TEMPO 2204/2206 P6SM -RASN OVC022
     FM220800 33006KT P6SM SCT050
     FM221200 35007KT P6SM SCT050
     FM222100 33006KT P6SM SCT250=

USA.gov is the U.S. government's official web portal to all federal, state and local government web resources and services.